Time;durP1;ratioP1;P1;durP2;ratioP2;P2;SDS_P1;SDS_P2;PMS_P1;PMS_P2;Temp;Humidity;BMP_temperature;BMP_pressure;BME280_temperature;BME280_humidity;BME280_pressure;Samples;Min_cycle;Max_cycle;Signal;HPM_P1;HPM_P2
2022/06/06 00:01:10;;;;;;;12.07;8.80;;;19.20;99.90;;;;;;5022872;28;20617;-91
2022/06/06 00:03:35;;;;;;;12.35;8.45;;;19.30;99.90;;;;;;5036452;28;20193;-91
2022/06/06 00:06:01;;;;;;;12.15;9.02;;;19.30;99.90;;;;;;5037043;28;20186;-92
2022/06/06 00:08:27;;;;;;;16.30;9.35;;;19.30;99.90;;;;;;5036982;28;20532;-92
2022/06/06 00:10:56;;;;;;;12.57;8.73;;;19.30;99.90;;;;;;5037086;28;20178;-92
2022/06/06 00:13:22;;;;;;;9.95;8.55;;;19.40;99.90;;;;;;5038101;28;20270;-86
2022/06/06 00:15:48;;;;;;;10.90;8.52;;;19.40;99.90;;;;;;5037980;28;20285;-91
2022/06/06 00:18:22;;;;;;;13.13;10.23;;;19.40;99.90;;;;;;5037128;28;20531;-90
2022/06/06 00:20:47;;;;;;;13.25;9.88;;;19.40;99.90;;;;;;5033044;28;20186;-90
2022/06/06 00:23:13;;;;;;;9.73;8.77;;;19.40;99.90;;;;;;5018921;28;20182;-88
2022/06/06 00:25:39;;;;;;;9.98;8.77;;;19.30;99.90;;;;;;5036565;28;20170;-91
2022/06/06 00:28:05;;;;;;;10.23;9.23;;;19.30;99.90;;;;;;5036469;28;20236;-91
2022/06/06 00:30:30;;;;;;;9.95;8.77;;;19.30;99.90;;;;;;5038219;28;20268;-90
2022/06/06 00:35:41;;;;;;;9.70;8.70;;;19.20;99.90;;;;;;5454785;22;20287;-83
2022/06/06 00:38:07;;;;;;;9.25;8.05;;;19.20;99.90;;;;;;5030953;28;20202;-84
2022/06/06 00:40:33;;;;;;;9.73;7.20;;;19.10;99.90;;;;;;5036079;28;20170;-85
2022/06/06 00:43:00;;;;;;;11.90;6.05;;;19.10;99.90;;;;;;5035394;28;20183;-85
2022/06/06 00:45:31;;;;;;;7.82;6.22;;;19.00;99.90;;;;;;5051771;28;20593;-84
2022/06/06 00:48:04;;;;;;;6.88;6.10;;;19.00;99.90;;;;;;5036585;28;20190;-86
2022/06/06 00:50:37;;;;;;;8.27;5.97;;;18.90;99.90;;;;;;5036658;28;20166;-84
2022/06/06 00:53:04;;;;;;;6.15;5.55;;;18.90;99.90;;;;;;5049349;28;20182;-85
2022/06/06 00:55:36;;;;;;;5.95;5.40;;;18.80;99.90;;;;;;5034172;28;20213;-85
2022/06/06 00:58:11;;;;;;;6.63;4.78;;;18.70;99.90;;;;;;5035724;28;20636;-87
2022/06/06 01:00:38;;;;;;;5.60;4.30;;;18.70;99.90;;;;;;5032454;28;20261;-85
2022/06/06 01:03:06;;;;;;;6.63;4.43;;;18.60;99.90;;;;;;5048741;28;20182;-86
2022/06/06 01:05:33;;;;;;;5.10;4.43;;;18.50;99.90;;;;;;5034722;28;20190;-85
2022/06/06 01:07:59;;;;;;;5.00;4.40;;;18.40;99.90;;;;;;5035628;28;20221;-84
2022/06/06 01:10:25;;;;;;;6.68;4.03;;;18.50;99.90;;;;;;5036856;28;20166;-83
2022/06/06 01:12:53;;;;;;;4.47;4.07;;;18.40;99.90;;;;;;5033358;28;20343;-86
2022/06/06 01:15:23;;;;;;;5.47;4.20;;;18.40;99.90;;;;;;5036488;28;20233;-84
2022/06/06 01:18:05;;;;;;;4.75;3.88;;;18.40;99.90;;;;;;5035353;28;20183;-84
2022/06/06 01:20:45;;;;;;;4.57;3.90;;;18.30;99.90;;;;;;5035389;28;20201;-85
2022/06/06 01:23:14;;;;;;;5.03;4.30;;;18.30;99.90;;;;;;5034484;28;20189;-84
2022/06/06 01:26:15;;;;;;;3.72;3.42;;;18.30;99.90;;;;;;5034589;28;20237;-84
2022/06/06 01:28:48;;;;;;;4.20;3.80;;;18.20;99.90;;;;;;5035170;28;20224;-83
2022/06/06 01:31:36;;;;;;;3.65;3.22;;;18.10;99.90;;;;;;5033188;28;20187;-84
2022/06/06 01:34:04;;;;;;;3.47;3.15;;;18.10;99.90;;;;;;5034824;28;20244;-85
2022/06/06 01:36:32;;;;;;;4.10;3.40;;;18.10;99.90;;;;;;5050170;28;20226;-85
2022/06/06 01:39:00;;;;;;;3.53;3.22;;;18.00;99.90;;;;;;5035380;28;20207;-83
2022/06/06 01:41:52;;;;;;;3.42;2.92;;;18.00;99.90;;;;;;5034824;28;20244;-84
2022/06/06 01:44:43;;;;;;;3.35;3.05;;;18.00;99.90;;;;;;5035669;28;20265;-84
2022/06/06 01:47:14;;;;;;;4.65;3.08;;;18.00;99.90;;;;;;5027432;28;20182;-84
2022/06/06 01:49:41;;;;;;;6.40;3.28;;;18.00;99.90;;;;;;5034896;28;20216;-84
2022/06/06 01:52:14;;;;;;;3.75;3.17;;;18.00;99.90;;;;;;5034913;28;20181;-85
2022/06/06 01:54:42;;;;;;;3.53;3.22;;;18.00;99.90;;;;;;5033188;28;20254;-85
2022/06/06 01:57:10;;;;;;;4.10;3.08;;;18.00;99.90;;;;;;5035011;28;20304;-84
2022/06/06 01:59:36;;;;;;;6.07;3.10;;;18.00;99.90;;;;;;5050522;28;20286;-83
2022/06/06 02:02:02;;;;;;;4.57;2.88;;;17.90;99.90;;;;;;5034002;28;20178;-84
2022/06/06 02:04:28;;;;;;;3.47;2.78;;;17.90;99.90;;;;;;5033904;28;20182;-84
2022/06/06 02:06:53;;;;;;;4.88;2.75;;;17.90;99.90;;;;;;5034485;28;20524;-84
2022/06/06 02:09:19;;;;;;;3.00;2.50;;;17.80;99.90;;;;;;5023325;28;20625;-85
2022/06/06 02:11:45;;;;;;;3.67;3.00;;;17.80;99.90;;;;;;5032368;28;20253;-84
2022/06/06 02:14:11;;;;;;;2.65;2.45;;;17.80;99.90;;;;;;5023658;28;20256;-84
2022/06/06 02:16:38;;;;;;;2.83;2.60;;;17.80;99.90;;;;;;5030079;28;20290;-84
2022/06/06 02:19:05;;;;;;;3.45;2.70;;;17.80;99.90;;;;;;5033591;28;20182;-82
2022/06/06 02:21:31;;;;;;;3.45;2.92;;;17.80;99.90;;;;;;5034863;28;20228;-83
2022/06/06 02:23:56;;;;;;;3.22;2.92;;;17.70;99.90;;;;;;5033281;28;20183;-83
2022/06/06 02:26:22;;;;;;;3.45;3.15;;;17.70;99.90;;;;;;5033930;28;20178;-84
2022/06/06 02:28:49;;;;;;;4.63;3.00;;;17.70;99.90;;;;;;5033825;28;20178;-83
2022/06/06 02:31:14;;;;;;;2.90;2.60;;;17.60;99.90;;;;;;5029984;28;20527;-84
2022/06/06 02:33:40;;;;;;;4.60;2.53;;;17.60;99.90;;;;;;5033853;28;20183;-84
2022/06/06 02:36:06;;;;;;;4.85;3.00;;;17.60;99.90;;;;;;5032325;28;20230;-84
2022/06/06 02:38:34;;;;;;;3.03;2.65;;;17.60;99.90;;;;;;5034703;28;20197;-84
2022/06/06 02:41:07;;;;;;;4.50;2.65;;;17.60;99.90;;;;;;5033328;28;20652;-84
2022/06/06 02:43:41;;;;;;;3.15;2.85;;;17.60;99.90;;;;;;5035413;28;20163;-84
2022/06/06 02:46:07;;;;;;;3.03;2.75;;;17.60;99.90;;;;;;5033883;28;20182;-84
2022/06/06 02:48:33;;;;;;;3.30;2.78;;;17.60;99.90;;;;;;5034473;28;20235;-84
2022/06/06 02:51:00;;;;;;;3.40;2.85;;;17.60;99.90;;;;;;5034168;28;20175;-85
2022/06/06 02:53:26;;;;;;;2.80;2.50;;;17.60;99.90;;;;;;5033016;28;20182;-84
2022/06/06 02:55:57;;;;;;;3.65;2.80;;;17.50;99.90;;;;;;5033297;28;20237;-84
2022/06/06 02:58:24;;;;;;;2.80;2.50;;;17.50;99.90;;;;;;5033371;28;20509;-82
2022/06/06 03:01:01;;;;;;;3.05;2.80;;;17.50;99.90;;;;;;5029947;28;20229;-83
2022/06/06 03:03:27;;;;;;;3.97;2.72;;;17.50;99.90;;;;;;5042928;28;20185;-84
2022/06/06 03:06:05;;;;;;;4.18;2.90;;;17.40;99.90;;;;;;5029867;28;20500;-83
2022/06/06 03:09:02;;;;;;;3.20;2.90;;;17.40;99.90;;;;;;5034076;28;20185;-84
2022/06/06 03:11:47;;;;;;;5.15;3.08;;;17.40;99.90;;;;;;5034162;28;20695;-84
2022/06/06 03:14:50;;;;;;;3.13;2.83;;;17.40;99.90;;;;;;5034656;28;20163;-84
2022/06/06 03:22:58;;;;;;;4.03;3.20;;;17.40;99.90;;;;;;5031255;28;20273;-82
2022/06/06 03:25:36;;;;;;;3.65;3.00;;;17.40;99.90;;;;;;5033734;28;20175;-81
2022/06/06 03:28:40;;;;;;;4.22;3.25;;;17.40;99.90;;;;;;5033374;28;20261;-82
2022/06/06 03:31:33;;;;;;;4.20;3.30;;;17.40;99.90;;;;;;5032681;28;20191;-84
2022/06/06 03:34:32;;;;;;;6.88;3.20;;;17.30;99.90;;;;;;5015371;28;20163;-82
2022/06/06 03:37:24;;;;;;;4.15;3.10;;;17.30;99.90;;;;;;5035957;28;20230;-85
2022/06/06 03:40:23;;;;;;;3.25;2.95;;;17.30;99.90;;;;;;5038614;28;20249;-84
2022/06/06 03:43:18;;;;;;;6.30;3.45;;;17.30;99.90;;;;;;5001877;28;20732;-84
2022/06/06 03:45:52;;;;;;;5.35;3.83;;;17.20;99.90;;;;;;5027288;28;20589;-85
2022/06/06 03:48:36;;;;;;;4.32;3.40;;;17.20;99.90;;;;;;5036773;28;20232;-83
2022/06/06 03:51:23;;;;;;;6.13;3.70;;;17.20;99.90;;;;;;5037932;28;20237;-85
2022/06/06 03:54:05;;;;;;;7.20;3.50;;;17.20;99.90;;;;;;5017421;28;20183;-82
2022/06/06 03:56:52;;;;;;;4.20;3.70;;;17.10;99.90;;;;;;5048473;28;20213;-83
2022/06/06 03:59:19;;;;;;;5.53;3.97;;;17.10;99.90;;;;;;5036927;28;20182;-83
2022/06/06 04:01:46;;;;;;;7.30;4.47;;;17.00;99.90;;;;;;5052116;28;20264;-83
2022/06/06 04:04:13;;;;;;;4.45;3.92;;;17.00;99.90;;;;;;5035658;28;20289;-83
2022/06/06 04:06:39;;;;;;;6.55;3.67;;;17.00;99.90;;;;;;5032539;28;20240;-85
2022/06/06 04:09:06;;;;;;;5.00;3.72;;;17.00;99.90;;;;;;5037563;28;20183;-85
2022/06/06 04:11:49;;;;;;;6.80;4.07;;;17.10;99.90;;;;;;5037324;28;20309;-86
2022/06/06 04:14:36;;;;;;;6.22;4.40;;;17.10;99.90;;;;;;5053557;28;20175;-85
2022/06/06 04:17:26;;;;;;;7.70;4.15;;;17.10;99.90;;;;;;5036053;28;20260;-85
2022/06/06 04:20:19;;;;;;;4.90;4.10;;;17.10;99.90;;;;;;5036052;28;20336;-82
2022/06/06 04:22:52;;;;;;;4.45;3.65;;;17.00;99.90;;;;;;5036999;28;20560;-85
2022/06/06 04:25:44;;;;;;;7.07;4.03;;;17.10;99.90;;;;;;5036913;28;20261;-84
2022/06/06 04:28:32;;;;;;;4.78;4.13;;;17.00;99.90;;;;;;5037338;28;20186;-84
2022/06/06 04:31:26;;;;;;;4.80;4.00;;;17.10;99.90;;;;;;5032193;28;20178;-82
2022/06/06 04:34:11;;;;;;;4.78;3.83;;;17.10;99.90;;;;;;5036434;28;20482;-84
2022/06/06 04:36:56;;;;;;;6.40;3.85;;;17.10;99.90;;;;;;5035742;28;20238;-86
2022/06/06 04:39:35;;;;;;;5.72;4.10;;;17.20;99.90;;;;;;5036990;28;20223;-84
2022/06/06 04:42:07;;;;;;;7.13;4.47;;;17.30;99.90;;;;;;5034388;28;20206;-86
2022/06/06 04:45:13;;;;;;;9.35;3.90;;;17.30;99.90;;;;;;5035811;28;20232;-82
2022/06/06 04:47:41;;;;;;;4.70;3.47;;;17.40;99.90;;;;;;5025882;28;20260;-82
2022/06/06 04:50:10;;;;;;;4.22;3.83;;;17.40;99.90;;;;;;5035918;28;20178;-82
2022/06/06 04:52:39;;;;;;;5.75;4.03;;;17.50;99.90;;;;;;5036451;28;20652;-82
2022/06/06 04:55:09;;;;;;;4.93;3.92;;;17.50;99.90;;;;;;5035824;28;20629;-82
2022/06/06 04:57:39;;;;;;;5.97;4.30;;;17.50;99.90;;;;;;5035371;28;20621;-82
2022/06/06 05:00:08;;;;;;;6.50;3.88;;;17.60;99.90;;;;;;5035984;28;20261;-82
2022/06/06 05:02:35;;;;;;;5.72;3.67;;;17.60;99.90;;;;;;5034687;28;20269;-82
2022/06/06 05:05:01;;;;;;;5.20;4.03;;;17.60;99.90;;;;;;5035889;28;20178;-82
2022/06/06 05:07:52;;;;;;;5.95;3.95;;;17.70;99.90;;;;;;5035374;28;20185;-82
2022/06/06 05:10:26;;;;;;;6.57;3.92;;;17.70;99.90;;;;;;5035357;28;20490;-84
2022/06/06 05:13:07;;;;;;;4.30;3.90;;;17.70;99.90;;;;;;5035962;28;20236;-83
2022/06/06 05:15:54;;;;;;;5.75;3.83;;;17.70;99.90;;;;;;5036976;28;20198;-86
2022/06/06 05:18:23;;;;;;;4.25;3.85;;;17.80;99.90;;;;;;5035056;28;20183;-84
2022/06/06 05:20:54;;;;;;;4.85;3.85;;;17.90;99.90;;;;;;5052029;28;20635;-84
2022/06/06 05:23:41;;;;;;;6.55;3.70;;;18.00;99.90;;;;;;5052559;28;20590;-84
2022/06/06 05:26:34;;;;;;;5.65;4.15;;;18.00;99.90;;;;;;5035069;28;20182;-84
2022/06/06 05:29:28;;;;;;;5.78;4.43;;;18.00;99.90;;;;;;5036298;28;20210;-84
2022/06/06 05:32:10;;;;;;;7.35;4.10;;;18.00;99.90;;;;;;5034169;28;20179;-85
2022/06/06 05:34:50;;;;;;;7.65;4.18;;;18.00;99.90;;;;;;5051365;28;20186;-85
2022/06/06 05:37:37;;;;;;;7.25;4.85;;;18.00;99.90;;;;;;5036027;28;20218;-83
2022/06/06 05:40:18;;;;;;;7.15;4.45;;;18.00;99.90;;;;;;5032656;28;20273;-85
2022/06/06 05:43:30;;;;;;;5.82;4.88;;;18.00;99.90;;;;;;5017864;28;20237;-85
2022/06/06 05:46:35;;;;;;;7.68;4.88;;;18.10;99.90;;;;;;5032923;28;20175;-84
2022/06/06 05:49:22;;;;;;;7.93;5.45;;;18.10;99.90;;;;;;5035185;28;20616;-84
2022/06/06 05:52:16;;;;;;;7.15;5.32;;;18.10;99.90;;;;;;5034952;28;20166;-84
2022/06/06 05:54:51;;;;;;;7.38;5.32;;;18.10;99.90;;;;;;4992672;28;20392;-85
2022/06/06 05:57:25;;;;;;;8.77;5.80;;;18.10;99.90;;;;;;5035027;28;20217;-85
2022/06/06 06:00:16;;;;;;;9.07;6.07;;;18.20;99.90;;;;;;5035785;28;20159;-84
2022/06/06 06:03:10;;;;;;;7.57;5.97;;;18.20;99.90;;;;;;5034865;28;20174;-85
2022/06/06 06:05:47;;;;;;;12.85;5.97;;;18.10;99.90;;;;;;5035219;28;20179;-84
2022/06/06 06:08:23;;;;;;;8.95;6.65;;;18.10;99.90;;;;;;5035491;28;20171;-84
2022/06/06 06:11:06;;;;;;;10.40;7.10;;;18.10;99.90;;;;;;5033647;28;20178;-87
2022/06/06 06:13:44;;;;;;;9.73;7.30;;;18.10;99.90;;;;;;5035094;28;20171;-85
2022/06/06 06:16:11;;;;;;;11.38;7.78;;;18.00;99.90;;;;;;5014441;28;20210;-85
2022/06/06 06:18:46;;;;;;;10.20;7.22;;;18.00;99.90;;;;;;5026313;28;20200;-88
2022/06/06 06:21:19;;;;;;;13.35;7.25;;;18.00;99.90;;;;;;5033705;28;20269;-84
2022/06/06 06:23:56;;;;;;;11.20;8.07;;;18.00;99.90;;;;;;5033520;28;20177;-84
2022/06/06 06:26:22;;;;;;;12.90;8.45;;;18.00;99.90;;;;;;5031177;28;20193;-84
2022/06/06 06:28:49;;;;;;;11.15;8.38;;;18.10;99.90;;;;;;5033885;28;20175;-84
2022/06/06 06:31:47;;;;;;;10.48;8.25;;;18.20;99.90;;;;;;5050080;28;20262;-84
2022/06/06 06:34:51;;;;;;;11.57;8.05;;;18.20;99.90;;;;;;5023595;28;20632;-84
2022/06/06 06:37:23;;;;;;;9.60;7.60;;;18.20;99.90;;;;;;5032797;28;20264;-83
2022/06/06 06:40:22;;;;;;;11.85;7.90;;;18.30;99.90;;;;;;5048206;28;20178;-87
2022/06/06 06:43:13;;;;;;;11.20;7.45;;;18.30;99.90;;;;;;5033714;28;20176;-88
2022/06/06 06:45:57;;;;;;;10.32;7.57;;;18.40;99.90;;;;;;5035411;28;20617;-87
2022/06/06 06:48:38;;;;;;;10.68;7.32;;;18.40;99.90;;;;;;5033586;28;20240;-86
2022/06/06 06:51:24;;;;;;;12.70;7.10;;;18.40;99.90;;;;;;5034308;28;20182;-88
2022/06/06 06:54:27;;;;;;;12.82;6.90;;;18.40;99.90;;;;;;5033574;28;20190;-88
2022/06/06 06:57:19;;;;;;;8.70;6.43;;;18.40;99.90;;;;;;5033787;28;20719;-87
2022/06/06 07:00:05;;;;;;;15.20;7.78;;;18.40;99.90;;;;;;5033811;28;20193;-86
2022/06/06 07:08:43;;;;;;;13.60;6.45;;;18.70;99.90;;;;;;5034875;28;20638;-87
2022/06/06 07:11:37;;;;;;;10.57;6.43;;;18.90;99.90;;;;;;5032517;28;20190;-88
2022/06/06 07:14:16;;;;;;;8.00;6.28;;;18.90;99.90;;;;;;5034687;28;20235;-89
2022/06/06 07:16:42;;;;;;;6.95;6.00;;;18.90;99.90;;;;;;5033884;28;20286;-86
2022/06/06 07:19:14;;;;;;;8.10;5.70;;;18.90;99.90;;;;;;5050119;28;20265;-85
2022/06/06 07:21:42;;;;;;;8.55;6.15;;;19.00;99.90;;;;;;5033025;28;20217;-85
2022/06/06 07:24:16;;;;;;;7.40;6.05;;;19.20;99.90;;;;;;5050143;28;20179;-84
2022/06/06 07:26:44;;;;;;;10.10;6.78;;;19.20;99.90;;;;;;5023242;28;20186;-84
2022/06/06 07:29:16;;;;;;;8.88;6.28;;;19.30;99.90;;;;;;5043561;28;20178;-86
2022/06/06 07:32:05;;;;;;;7.95;6.43;;;19.30;99.90;;;;;;5031669;28;20186;-86
2022/06/06 07:34:52;;;;;;;7.38;6.10;;;19.40;99.90;;;;;;5033748;28;20228;-86
2022/06/06 07:37:41;;;;;;;7.82;6.10;;;19.70;99.90;;;;;;5032800;28;20233;-85
2022/06/06 07:40:51;;;;;;;9.18;6.40;;;19.90;99.90;;;;;;5049787;28;20282;-85
2022/06/06 07:43:42;;;;;;;7.07;5.90;;;20.00;99.90;;;;;;5009949;28;20182;-86
2022/06/06 07:46:19;;;;;;;7.43;5.20;;;20.10;99.90;;;;;;5032432;28;20252;-85
2022/06/06 07:49:13;;;;;;;10.20;5.50;;;20.20;99.90;;;;;;5034178;28;20202;-87
2022/06/06 07:51:56;;;;;;;8.27;5.50;;;20.50;99.90;;;;;;5045598;28;20668;-84
2022/06/06 07:54:57;;;;;;;8.57;6.00;;;20.60;99.90;;;;;;5032529;28;20185;-85
2022/06/06 07:58:01;;;;;;;8.00;5.68;;;20.30;99.90;;;;;;5030800;28;20696;-85
2022/06/06 08:00:28;;;;;;;9.15;5.35;;;20.20;99.90;;;;;;5031924;28;21969;-86
2022/06/06 08:03:15;;;;;;;6.55;5.30;;;20.50;99.90;;;;;;5033320;28;20175;-86
2022/06/06 08:06:08;;;;;;;7.35;4.75;;;20.30;99.90;;;;;;5029484;28;20183;-85
2022/06/06 08:09:07;;;;;;;5.82;5.07;;;20.30;99.90;;;;;;5032940;28;20614;-86
2022/06/06 08:11:57;;;;;;;5.20;4.35;;;20.70;99.90;;;;;;5049510;28;20559;-85
2022/06/06 08:14:28;;;;;;;7.45;4.45;;;20.70;99.90;;;;;;5049419;28;20202;-87
2022/06/06 08:17:10;;;;;;;5.72;4.57;;;20.70;99.90;;;;;;5033204;28;20215;-85
2022/06/06 08:20:09;;;;;;;6.60;4.72;;;20.70;99.90;;;;;;5033095;28;20174;-87
2022/06/06 08:22:42;;;;;;;6.38;4.30;;;20.80;99.90;;;;;;5036229;28;20551;-87
2022/06/06 08:25:13;;;;;;;5.88;4.38;;;20.80;99.90;;;;;;5036645;28;20260;-86
2022/06/06 08:27:50;;;;;;;6.35;4.57;;;20.60;99.90;;;;;;5036657;28;20170;-86
2022/06/06 08:30:17;;;;;;;6.50;4.80;;;20.20;99.90;;;;;;5036897;28;20170;-86
2022/06/06 08:32:43;;;;;;;6.18;3.97;;;20.10;99.90;;;;;;5037140;28;20171;-88
2022/06/06 08:35:09;;;;;;;7.63;4.47;;;20.10;99.90;;;;;;5036527;28;20197;-88
2022/06/06 08:37:58;;;;;;;5.78;4.65;;;20.10;99.90;;;;;;5036577;28;20229;-87
2022/06/06 08:40:32;;;;;;;8.10;4.55;;;20.20;99.90;;;;;;5025960;28;20190;-86
2022/06/06 08:43:16;;;;;;;6.80;5.40;;;20.20;99.90;;;;;;5036665;28;20573;-86
2022/06/06 08:45:59;;;;;;;6.05;4.53;;;20.10;99.90;;;;;;5017886;28;20172;-87
2022/06/06 08:50:44;;;;;;;6.60;4.78;;;20.10;99.90;;;;;;5034571;28;20637;-86
2022/06/06 08:52:25;;;;;;;5.75;4.70;;;20.00;99.90;;;;;;5037527;28;20233;-86
2022/06/06 08:55:20;;;;;;;7.85;4.32;;;20.00;99.90;;;;;;5036018;28;20190;-88
2022/06/06 08:58:26;;;;;;;5.05;4.13;;;20.00;99.90;;;;;;5036371;28;20281;-86
2022/06/06 09:01:03;;;;;;;4.65;4.00;;;20.30;99.90;;;;;;5036183;28;20632;-86
2022/06/06 09:04:10;;;;;;;5.28;4.00;;;20.60;99.90;;;;;;5036057;28;20186;-86
2022/06/06 09:06:54;;;;;;;4.10;3.38;;;20.90;99.90;;;;;;4998273;28;20649;-88
2022/06/06 09:09:29;;;;;;;5.10;3.65;;;21.20;99.90;;;;;;5033059;28;20182;-85
2022/06/06 09:12:31;;;;;;;4.68;3.92;;;21.40;99.90;;;;;;5032702;28;20175;-86
2022/06/06 09:15:21;;;;;;;5.38;3.95;;;21.50;99.90;;;;;;5046744;28;20174;-87
2022/06/06 09:17:59;;;;;;;5.72;4.18;;;21.70;99.90;;;;;;5037019;28;20179;-87
2022/06/06 09:21:05;;;;;;;4.30;3.10;;;21.70;99.90;;;;;;5015718;28;20270;-85
2022/06/06 09:23:33;;;;;;;10.02;3.25;;;21.60;99.90;;;;;;5036281;28;20181;-86
2022/06/06 09:26:36;;;;;;;4.60;3.30;;;21.60;99.90;;;;;;5015965;28;20292;-84
2022/06/06 09:29:41;;;;;;;4.75;3.50;;;21.60;99.90;;;;;;5036247;28;20174;-84
2022/06/06 09:32:06;;;;;;;4.78;3.10;;;21.60;99.90;;;;;;4997780;28;20187;-87
2022/06/06 09:35:07;;;;;;;5.43;3.58;;;21.80;99.90;;;;;;4996479;28;20180;-85
2022/06/06 09:37:49;;;;;;;5.38;3.95;;;22.10;99.90;;;;;;5023494;28;20782;-83
2022/06/06 09:40:22;;;;;;;5.65;3.70;;;21.90;99.90;;;;;;5034394;28;20179;-84
2022/06/06 09:42:51;;;;;;;5.25;4.00;;;21.70;99.90;;;;;;5034658;28;20186;-85
2022/06/06 09:45:31;;;;;;;5.78;3.80;;;21.60;99.90;;;;;;5029517;28;20179;-85
2022/06/06 09:48:47;;;;;;;4.20;3.80;;;21.80;99.90;;;;;;5022905;28;20497;-85
2022/06/06 09:51:31;;;;;;;5.70;4.10;;;22.00;99.90;;;;;;5038025;28;20190;-87
2022/06/06 10:00:39;;;;;;;5.28;3.88;;;22.50;99.90;;;;;;5024221;28;20174;-84
2022/06/06 10:03:56;;;;;;;5.38;3.88;;;22.60;99.90;;;;;;5025506;28;20221;-88
2022/06/06 10:06:47;;;;;;;5.18;3.55;;;22.80;99.90;;;;;;4956693;28;20205;-84
2022/06/06 10:09:49;;;;;;;3.70;3.13;;;22.90;99.90;;;;;;4949333;28;20184;-84
2022/06/06 10:12:41;;;;;;;4.03;3.50;;;22.90;99.90;;;;;;5014801;28;20221;-85
2022/06/06 10:15:29;;;;;;;6.22;3.63;;;22.90;99.90;;;;;;5025609;28;20199;-89
2022/06/06 10:18:07;;;;;;;4.07;3.05;;;22.70;99.90;;;;;;5020541;28;20189;-91
2022/06/06 10:20:51;;;;;;;6.35;3.78;;;22.50;99.90;;;;;;5023471;28;20213;-88
2022/06/06 10:23:42;;;;;;;4.10;3.20;;;22.30;99.90;;;;;;5031271;28;20217;-90
2022/06/06 10:26:38;;;;;;;4.03;3.28;;;22.70;99.90;;;;;;5024138;28;20233;-93
2022/06/06 10:30:10;;;;;;;5.35;3.80;;;22.90;99.90;;;;;;5024786;28;20214;-90
2022/06/06 10:32:48;;;;;;;4.80;3.88;;;22.50;99.90;;;;;;5025808;28;20183;-88
2022/06/06 10:35:20;;;;;;;4.45;3.50;;;22.00;99.90;;;;;;5028970;28;20510;-88
2022/06/06 10:38:20;;;;;;;4.30;3.70;;;21.80;99.90;;;;;;5032861;28;20222;-88
2022/06/06 10:41:01;;;;;;;4.15;3.60;;;21.50;99.90;;;;;;5025882;28;20676;-89
2022/06/06 10:43:45;;;;;;;4.80;3.40;;;21.30;99.90;;;;;;5032355;28;20249;-87
2022/06/06 10:46:25;;;;;;;3.88;3.13;;;21.30;99.90;;;;;;5025341;28;20665;-87
2022/06/06 10:49:20;;;;;;;4.20;3.40;;;21.20;99.90;;;;;;5029447;28;20256;-87
2022/06/06 10:52:20;;;;;;;3.97;3.25;;;21.10;99.90;;;;;;5018160;28;20188;-85
2022/06/06 10:54:55;;;;;;;4.68;3.75;;;21.30;99.90;;;;;;5018128;28;20185;-83
2022/06/06 10:57:39;;;;;;;3.60;3.30;;;21.90;99.90;;;;;;5020468;28;20237;-85
2022/06/06 11:00:40;;;;;;;4.30;3.42;;;22.60;99.90;;;;;;5031332;28;20194;-87
2022/06/06 11:03:45;;;;;;;4.40;3.38;;;23.00;99.90;;;;;;5021439;28;20653;-85
2022/06/06 11:06:20;;;;;;;4.97;3.60;;;23.00;99.90;;;;;;5039935;28;20288;-87
2022/06/06 11:09:11;;;;;;;5.43;4.00;;;23.00;99.90;;;;;;5023383;28;20261;-86
2022/06/06 11:11:58;;;;;;;3.95;3.45;;;23.00;99.90;;;;;;5028438;28;20178;-85
2022/06/06 11:14:30;;;;;;;5.43;3.00;;;22.90;99.90;;;;;;5023908;28;20213;-84
2022/06/06 11:17:32;;;;;;;3.33;2.67;;;23.10;99.90;;;;;;5030648;28;20203;-84
2022/06/06 11:20:36;;;;;;;5.15;2.80;;;23.30;99.90;;;;;;5027680;28;20651;-85
2022/06/06 11:23:19;;;;;;;3.05;2.60;;;23.60;99.90;;;;;;5019187;28;20186;-85
2022/06/06 11:26:19;;;;;;;5.40;2.25;;;23.80;99.90;;;;;;5028313;28;20448;-90
2022/06/06 11:29:06;;;;;;;4.95;2.47;;;23.80;99.90;;;;;;5028473;28;20178;-91
2022/06/06 11:31:59;;;;;;;3.28;2.17;;;24.00;99.90;;;;;;5027029;28;20494;-84
2022/06/06 11:34:54;;;;;;;4.30;2.33;;;24.10;98.70;;;;;;5026923;28;20262;-88
2022/06/06 11:37:47;;;;;;;6.25;2.60;;;24.20;98.50;;;;;;5026670;28;20246;-90
2022/06/06 11:40:21;;;;;;;2.60;2.20;;;24.10;98.50;;;;;;5025515;28;20209;-83
2022/06/06 11:43:22;;;;;;;4.80;2.30;;;23.90;99.20;;;;;;5020131;28;20175;-85
2022/06/06 11:45:58;;;;;;;2.80;2.17;;;23.50;99.90;;;;;;5028512;28;20206;-82
2022/06/06 11:48:30;;;;;;;3.17;1.70;;;23.10;99.10;;;;;;5021083;28;20543;-84
2022/06/06 11:51:13;;;;;;;3.33;1.92;;;22.70;98.60;;;;;;5028638;28;20193;-84
2022/06/06 11:53:53;;;;;;;2.72;2.13;;;22.20;99.90;;;;;;5037327;28;20186;-84
2022/06/06 11:56:53;;;;;;;6.90;2.03;;;21.90;99.90;;;;;;5030892;28;20233;-82
2022/06/06 11:59:53;;;;;;;2.67;1.83;;;21.60;99.90;;;;;;5027465;28;20520;-87
2022/06/06 12:02:28;;;;;;;2.20;1.60;;;21.70;99.90;;;;;;5021153;28;20183;-86
2022/06/06 12:05:19;;;;;;;2.25;1.98;;;22.00;99.90;;;;;;5022048;28;20186;-84
2022/06/06 12:08:18;;;;;;;2.40;1.98;;;22.50;99.90;;;;;;5031161;28;20179;-90
2022/06/06 12:10:47;;;;;;;2.38;2.03;;;22.50;99.90;;;;;;5024065;28;20186;-84
2022/06/06 12:13:47;;;;;;;2.35;1.80;;;22.30;99.80;;;;;;5023956;28;20183;-85
2022/06/06 12:16:31;;;;;;;5.13;2.25;;;22.10;99.90;;;;;;5035870;28;20687;-87
2022/06/06 12:19:28;;;;;;;3.10;2.10;;;21.90;99.90;;;;;;5020359;28;20277;-86
2022/06/06 12:22:17;;;;;;;3.20;2.00;;;21.60;99.90;;;;;;5024229;28;20248;-84
2022/06/06 12:25:20;;;;;;;2.47;2.10;;;21.50;99.90;;;;;;5040720;28;20182;-85
2022/06/06 12:28:21;;;;;;;3.95;2.30;;;21.40;99.90;;;;;;5031752;28;20253;-84
2022/06/06 12:31:22;;;;;;;2.90;2.33;;;21.50;99.90;;;;;;5025245;28;20630;-84
2022/06/06 12:34:12;;;;;;;3.35;2.03;;;21.60;99.90;;;;;;5035002;28;20624;-83
2022/06/06 12:37:16;;;;;;;2.40;2.20;;;21.80;99.90;;;;;;5026357;28;20677;-85
2022/06/06 12:40:06;;;;;;;4.10;2.30;;;22.50;99.90;;;;;;4973535;28;20275;-83
2022/06/06 12:42:51;;;;;;;2.90;2.30;;;23.10;99.90;;;;;;5025395;28;20191;-83
2022/06/06 12:45:30;;;;;;;3.50;2.40;;;23.40;99.90;;;;;;5022980;28;20747;-85
2022/06/06 12:48:06;;;;;;;2.70;2.22;;;23.30;99.40;;;;;;5028073;28;20189;-86
2022/06/06 12:51:01;;;;;;;3.03;2.30;;;23.30;99.90;;;;;;5017412;28;20270;-85
2022/06/06 12:53:29;;;;;;;2.75;2.50;;;23.60;99.90;;;;;;5019647;28;20649;-84
2022/06/06 12:56:23;;;;;;;4.35;2.42;;;24.00;99.90;;;;;;5021872;28;20526;-86
2022/06/06 12:59:07;;;;;;;3.92;2.20;;;24.30;99.90;;;;;;5031935;28;20244;-88
2022/06/06 13:01:49;;;;;;;2.97;2.30;;;24.20;99.90;;;;;;5027333;28;20507;-86
2022/06/06 13:04:15;;;;;;;2.75;2.40;;;23.70;99.30;;;;;;5031632;28;20212;-89
2022/06/06 13:06:57;;;;;;;3.00;2.33;;;23.30;98.90;;;;;;5043108;28;20246;-88
2022/06/06 13:09:42;;;;;;;2.80;2.33;;;22.90;99.60;;;;;;5033615;28;20233;-84
2022/06/06 13:12:37;;;;;;;2.63;2.42;;;22.70;99.90;;;;;;5023117;28;20189;-85
2022/06/06 13:15:21;;;;;;;2.58;2.22;;;22.50;99.90;;;;;;5035152;28;20532;-86
2022/06/06 13:17:53;;;;;;;2.53;2.15;;;22.40;99.90;;;;;;5034971;28;20190;-85
2022/06/06 13:20:21;;;;;;;3.92;2.40;;;22.30;99.90;;;;;;5036939;28;20656;-83
2022/06/06 13:23:34;;;;;;;2.60;2.03;;;22.20;99.90;;;;;;5034220;28;20186;-84
2022/06/06 13:26:24;;;;;;;2.05;1.85;;;22.30;99.90;;;;;;5000382;28;20277;-92
2022/06/06 13:28:53;;;;;;;2.47;2.10;;;22.40;99.90;;;;;;5031914;28;20183;-89
2022/06/06 13:31:18;;;;;;;4.95;1.58;;;22.80;99.90;;;;;;5051018;28;20217;-83
2022/06/06 13:34:09;;;;;;;2.17;1.40;;;23.30;98.70;;;;;;5034670;28;20189;-86
2022/06/06 13:37:00;;;;;;;3.92;1.92;;;23.60;98.90;;;;;;5024655;28;20226;-85
2022/06/06 13:39:47;;;;;;;3.38;2.10;;;23.70;99.40;;;;;;5007515;28;20218;-84
2022/06/06 13:42:41;;;;;;;2.65;2.10;;;23.80;99.90;;;;;;5035623;28;20537;-84
2022/06/06 13:45:49;;;;;;;3.30;2.10;;;23.90;98.80;;;;;;5045293;28;20179;-86
2022/06/06 13:48:34;;;;;;;3.05;2.05;;;24.10;98.30;;;;;;5033900;28;20678;-85
2022/06/06 13:51:32;;;;;;;2.50;2.05;;;24.30;99.90;;;;;;5034886;28;20190;-83
2022/06/06 13:54:06;;;;;;;2.40;2.13;;;24.60;99.20;;;;;;5033236;28;20194;-86
2022/06/06 13:56:41;;;;;;;2.00;1.52;;;24.80;99.80;;;;;;5034097;28;20775;-85
2022/06/06 13:59:32;;;;;;;1.58;1.30;;;25.00;95.30;;;;;;5031425;28;20186;-87
2022/06/06 14:02:36;;;;;;;1.83;1.20;;;25.10;94.90;;;;;;5031866;28;20621;-83
2022/06/06 14:05:26;;;;;;;2.35;1.30;;;25.20;94.30;;;;;;5034416;28;20178;-86
2022/06/06 14:08:15;;;;;;;1.52;1.20;;;25.30;94.10;;;;;;5034875;28;20185;-85
2022/06/06 14:10:46;;;;;;;1.98;1.20;;;25.00;92.70;;;;;;5046955;28;20175;-82
2022/06/06 14:13:31;;;;;;;1.50;1.30;;;24.70;93.20;;;;;;5033756;28;20183;-83
2022/06/06 14:15:58;;;;;;;1.20;1.10;;;24.20;93.50;;;;;;5030110;28;20214;-85
2022/06/06 14:18:34;;;;;;;2.40;1.20;;;23.90;93.70;;;;;;5042892;28;20193;-83
2022/06/06 14:21:01;;;;;;;1.65;1.30;;;23.60;94.20;;;;;;5033204;28;20205;-84